sensor_id;sensor_type;location;lat;lon;timestamp;P1;durP1;ratioP1;P2;durP2;ratioP2
17259;SDS011;8746;49.230;9.220;2023-04-10T00:01:55;11.53;;;9.00;;
17259;SDS011;8746;49.230;9.220;2023-04-10T00:04:20;12.13;;;9.43;;
17259;SDS011;8746;49.230;9.220;2023-04-10T00:06:46;11.37;;;9.27;;
17259;SDS011;8746;49.230;9.220;2023-04-10T00:09:12;11.83;;;8.83;;
17259;SDS011;8746;49.230;9.220;2023-04-10T00:11:38;11.43;;;8.93;;
17259;SDS011;8746;49.230;9.220;2023-04-10T00:14:03;11.77;;;9.77;;
17259;SDS011;8746;49.230;9.220;2023-04-10T00:16:28;11.07;;;9.23;;
17259;SDS011;8746;49.230;9.220;2023-04-10T00:18:54;10.73;;;9.03;;
17259;SDS011;8746;49.230;9.220;2023-04-10T00:21:19;11.13;;;9.30;;
17259;SDS011;8746;49.230;9.220;2023-04-10T00:23:44;12.17;;;10.17;;
17259;SDS011;8746;49.230;9.220;2023-04-10T00:26:10;12.57;;;9.50;;
17259;SDS011;8746;49.230;9.220;2023-04-10T00:28:36;12.73;;;10.17;;
17259;SDS011;8746;49.230;9.220;2023-04-10T00:31:02;12.67;;;9.47;;
17259;SDS011;8746;49.230;9.220;2023-04-10T00:33:28;13.87;;;10.17;;
17259;SDS011;8746;49.230;9.220;2023-04-10T00:35:54;13.80;;;10.80;;
17259;SDS011;8746;49.230;9.220;2023-04-10T00:38:19;11.50;;;10.03;;
17259;SDS011;8746;49.230;9.220;2023-04-10T00:40:45;12.50;;;10.07;;
17259;SDS011;8746;49.230;9.220;2023-04-10T00:43:10;14.07;;;10.70;;
17259;SDS011;8746;49.230;9.220;2023-04-10T00:45:36;12.07;;;9.63;;
17259;SDS011;8746;49.230;9.220;2023-04-10T00:48:02;12.63;;;10.20;;
17259;SDS011;8746;49.230;9.220;2023-04-10T00:50:27;12.87;;;9.87;;
17259;SDS011;8746;49.230;9.220;2023-04-10T00:52:53;13.10;;;9.73;;
17259;SDS011;8746;49.230;9.220;2023-04-10T00:55:18;11.17;;;9.43;;
17259;SDS011;8746;49.230;9.220;2023-04-10T00:57:44;12.97;;;10.23;;
17259;SDS011;8746;49.230;9.220;2023-04-10T01:00:11;12.83;;;10.03;;
17259;SDS011;8746;49.230;9.220;2023-04-10T01:02:38;13.03;;;10.27;;
17259;SDS011;8746;49.230;9.220;2023-04-10T01:05:03;12.53;;;9.03;;
17259;SDS011;8746;49.230;9.220;2023-04-10T01:07:34;11.60;;;9.57;;
17259;SDS011;8746;49.230;9.220;2023-04-10T01:10:19;12.63;;;9.90;;
17259;SDS011;8746;49.230;9.220;2023-04-10T01:15:41;16.77;;;10.17;;
17259;SDS011;8746;49.230;9.220;2023-04-10T01:18:33;13.23;;;9.80;;
17259;SDS011;8746;49.230;9.220;2023-04-10T01:21:10;13.33;;;10.37;;
17259;SDS011;8746;49.230;9.220;2023-04-10T01:29:22;13.97;;;10.37;;
17259;SDS011;8746;49.230;9.220;2023-04-10T01:32:01;12.33;;;9.47;;
17259;SDS011;8746;49.230;9.220;2023-04-10T01:34:32;13.63;;;9.37;;
17259;SDS011;8746;49.230;9.220;2023-04-10T01:37:04;12.70;;;9.43;;
17259;SDS011;8746;49.230;9.220;2023-04-10T01:39:36;13.03;;;10.43;;
17259;SDS011;8746;49.230;9.220;2023-04-10T01:42:05;11.70;;;9.87;;
17259;SDS011;8746;49.230;9.220;2023-04-10T01:44:33;12.97;;;9.90;;
17259;SDS011;8746;49.230;9.220;2023-04-10T01:47:02;16.47;;;10.30;;
17259;SDS011;8746;49.230;9.220;2023-04-10T01:49:28;14.53;;;10.60;;
17259;SDS011;8746;49.230;9.220;2023-04-10T01:51:56;13.40;;;10.47;;
17259;SDS011;8746;49.230;9.220;2023-04-10T01:54:25;12.73;;;10.37;;
17259;SDS011;8746;49.230;9.220;2023-04-10T01:56:51;12.10;;;9.07;;
17259;SDS011;8746;49.230;9.220;2023-04-10T01:59:17;11.23;;;9.30;;
17259;SDS011;8746;49.230;9.220;2023-04-10T02:01:43;11.93;;;9.03;;
17259;SDS011;8746;49.230;9.220;2023-04-10T02:04:08;11.83;;;9.33;;
17259;SDS011;8746;49.230;9.220;2023-04-10T02:09:26;12.73;;;10.07;;
17259;SDS011;8746;49.230;9.220;2023-04-10T02:12:06;13.07;;;10.10;;
17259;SDS011;8746;49.230;9.220;2023-04-10T02:14:37;13.17;;;10.40;;
17259;SDS011;8746;49.230;9.220;2023-04-10T02:17:07;13.07;;;10.20;;
17259;SDS011;8746;49.230;9.220;2023-04-10T02:19:33;12.77;;;9.77;;
17259;SDS011;8746;49.230;9.220;2023-04-10T02:22:00;13.30;;;9.83;;
17259;SDS011;8746;49.230;9.220;2023-04-10T02:24:29;11.03;;;9.47;;
17259;SDS011;8746;49.230;9.220;2023-04-10T02:26:57;12.33;;;9.80;;
17259;SDS011;8746;49.230;9.220;2023-04-10T02:29:22;12.50;;;9.60;;
17259;SDS011;8746;49.230;9.220;2023-04-10T02:31:48;11.87;;;9.57;;
17259;SDS011;8746;49.230;9.220;2023-04-10T02:34:14;14.73;;;10.17;;
17259;SDS011;8746;49.230;9.220;2023-04-10T02:36:39;11.50;;;9.40;;
17259;SDS011;8746;49.230;9.220;2023-04-10T02:39:05;11.63;;;9.60;;
17259;SDS011;8746;49.230;9.220;2023-04-10T02:41:32;12.83;;;9.53;;
17259;SDS011;8746;49.230;9.220;2023-04-10T02:43:57;12.03;;;10.17;;
17259;SDS011;8746;49.230;9.220;2023-04-10T02:46:23;12.20;;;9.50;;
17259;SDS011;8746;49.230;9.220;2023-04-10T02:48:48;12.63;;;8.90;;
17259;SDS011;8746;49.230;9.220;2023-04-10T02:51:13;12.50;;;9.90;;
17259;SDS011;8746;49.230;9.220;2023-04-10T02:53:39;12.67;;;9.97;;
17259;SDS011;8746;49.230;9.220;2023-04-10T02:56:04;12.87;;;10.43;;
17259;SDS011;8746;49.230;9.220;2023-04-10T02:58:35;15.50;;;10.80;;
17259;SDS011;8746;49.230;9.220;2023-04-10T03:01:01;14.33;;;10.53;;
17259;SDS011;8746;49.230;9.220;2023-04-10T03:03:27;14.30;;;10.40;;
17259;SDS011;8746;49.230;9.220;2023-04-10T03:05:52;13.40;;;10.13;;
17259;SDS011;8746;49.230;9.220;2023-04-10T03:08:17;14.33;;;10.40;;
17259;SDS011;8746;49.230;9.220;2023-04-10T03:10:43;12.40;;;10.07;;
17259;SDS011;8746;49.230;9.220;2023-04-10T03:13:10;13.57;;;10.13;;
17259;SDS011;8746;49.230;9.220;2023-04-10T03:15:35;13.43;;;10.40;;
17259;SDS011;8746;49.230;9.220;2023-04-10T03:18:01;13.10;;;9.77;;
17259;SDS011;8746;49.230;9.220;2023-04-10T03:20:27;11.87;;;9.27;;
17259;SDS011;8746;49.230;9.220;2023-04-10T03:22:52;13.47;;;10.07;;
17259;SDS011;8746;49.230;9.220;2023-04-10T03:25:17;12.73;;;10.30;;
17259;SDS011;8746;49.230;9.220;2023-04-10T03:27:43;14.00;;;10.50;;
17259;SDS011;8746;49.230;9.220;2023-04-10T03:30:08;13.37;;;10.70;;
17259;SDS011;8746;49.230;9.220;2023-04-10T03:32:34;12.43;;;10.23;;
17259;SDS011;8746;49.230;9.220;2023-04-10T03:35:00;15.80;;;10.77;;
17259;SDS011;8746;49.230;9.220;2023-04-10T03:37:25;12.53;;;10.50;;
17259;SDS011;8746;49.230;9.220;2023-04-10T03:39:53;12.57;;;9.93;;
17259;SDS011;8746;49.230;9.220;2023-04-10T03:42:19;13.47;;;10.30;;
17259;SDS011;8746;49.230;9.220;2023-04-10T03:44:44;13.07;;;9.83;;
17259;SDS011;8746;49.230;9.220;2023-04-10T03:47:09;13.03;;;9.60;;
17259;SDS011;8746;49.230;9.220;2023-04-10T03:49:35;13.90;;;10.20;;
17259;SDS011;8746;49.230;9.220;2023-04-10T03:52:00;12.30;;;9.03;;
17259;SDS011;8746;49.230;9.220;2023-04-10T03:54:25;12.00;;;9.53;;
17259;SDS011;8746;49.230;9.220;2023-04-10T03:56:51;11.10;;;9.57;;
17259;SDS011;8746;49.230;9.220;2023-04-10T03:59:16;13.17;;;9.90;;
17259;SDS011;8746;49.230;9.220;2023-04-10T04:01:41;14.13;;;10.37;;
17259;SDS011;8746;49.230;9.220;2023-04-10T04:04:06;14.60;;;10.50;;
17259;SDS011;8746;49.230;9.220;2023-04-10T04:06:32;13.47;;;10.73;;
17259;SDS011;8746;49.230;9.220;2023-04-10T04:08:57;13.87;;;10.50;;
17259;SDS011;8746;49.230;9.220;2023-04-10T04:11:22;13.73;;;10.53;;
17259;SDS011;8746;49.230;9.220;2023-04-10T04:13:48;12.60;;;9.50;;
17259;SDS011;8746;49.230;9.220;2023-04-10T04:16:13;14.73;;;10.23;;
17259;SDS011;8746;49.230;9.220;2023-04-10T04:18:38;15.80;;;10.97;;
17259;SDS011;8746;49.230;9.220;2023-04-10T04:21:04;13.33;;;10.67;;
17259;SDS011;8746;49.230;9.220;2023-04-10T04:23:30;14.10;;;10.57;;
17259;SDS011;8746;49.230;9.220;2023-04-10T04:25:55;13.83;;;10.17;;
17259;SDS011;8746;49.230;9.220;2023-04-10T04:28:21;13.87;;;11.03;;
17259;SDS011;8746;49.230;9.220;2023-04-10T04:30:47;13.63;;;11.03;;
17259;SDS011;8746;49.230;9.220;2023-04-10T04:33:12;15.27;;;11.17;;
17259;SDS011;8746;49.230;9.220;2023-04-10T04:35:38;14.37;;;10.77;;
17259;SDS011;8746;49.230;9.220;2023-04-10T04:38:03;14.87;;;10.83;;
17259;SDS011;8746;49.230;9.220;2023-04-10T04:40:28;13.60;;;9.97;;
17259;SDS011;8746;49.230;9.220;2023-04-10T04:42:54;14.40;;;11.20;;
17259;SDS011;8746;49.230;9.220;2023-04-10T04:45:19;14.33;;;10.07;;
17259;SDS011;8746;49.230;9.220;2023-04-10T04:47:45;15.07;;;10.93;;
17259;SDS011;8746;49.230;9.220;2023-04-10T04:50:11;14.50;;;10.57;;
17259;SDS011;8746;49.230;9.220;2023-04-10T04:52:36;14.03;;;10.77;;
17259;SDS011;8746;49.230;9.220;2023-04-10T04:55:02;14.33;;;10.90;;
17259;SDS011;8746;49.230;9.220;2023-04-10T04:57:27;14.57;;;10.47;;
17259;SDS011;8746;49.230;9.220;2023-04-10T04:59:52;12.73;;;10.53;;
17259;SDS011;8746;49.230;9.220;2023-04-10T05:02:18;14.80;;;10.90;;
17259;SDS011;8746;49.230;9.220;2023-04-10T05:04:46;15.37;;;11.00;;
17259;SDS011;8746;49.230;9.220;2023-04-10T05:07:11;15.07;;;11.17;;
17259;SDS011;8746;49.230;9.220;2023-04-10T05:09:36;15.20;;;10.90;;
17259;SDS011;8746;49.230;9.220;2023-04-10T05:12:02;13.73;;;10.47;;
17259;SDS011;8746;49.230;9.220;2023-04-10T05:14:27;14.17;;;10.23;;
17259;SDS011;8746;49.230;9.220;2023-04-10T05:16:53;13.37;;;10.23;;
17259;SDS011;8746;49.230;9.220;2023-04-10T05:19:18;13.30;;;10.17;;
17259;SDS011;8746;49.230;9.220;2023-04-10T05:21:43;14.47;;;10.97;;
17259;SDS011;8746;49.230;9.220;2023-04-10T05:24:09;14.27;;;10.33;;
17259;SDS011;8746;49.230;9.220;2023-04-10T05:26:34;13.77;;;10.40;;
17259;SDS011;8746;49.230;9.220;2023-04-10T05:28:59;13.63;;;10.67;;
17259;SDS011;8746;49.230;9.220;2023-04-10T05:31:25;12.93;;;10.50;;
17259;SDS011;8746;49.230;9.220;2023-04-10T05:33:50;14.17;;;10.30;;
17259;SDS011;8746;49.230;9.220;2023-04-10T05:36:15;16.60;;;11.53;;
17259;SDS011;8746;49.230;9.220;2023-04-10T05:38:42;13.40;;;10.23;;
17259;SDS011;8746;49.230;9.220;2023-04-10T05:41:07;14.23;;;10.43;;
17259;SDS011;8746;49.230;9.220;2023-04-10T05:43:33;13.47;;;10.40;;
17259;SDS011;8746;49.230;9.220;2023-04-10T05:45:58;12.53;;;10.07;;
17259;SDS011;8746;49.230;9.220;2023-04-10T05:48:23;13.87;;;10.83;;
17259;SDS011;8746;49.230;9.220;2023-04-10T05:50:50;13.83;;;9.83;;
17259;SDS011;8746;49.230;9.220;2023-04-10T05:53:17;13.77;;;10.37;;
17259;SDS011;8746;49.230;9.220;2023-04-10T05:55:43;14.63;;;10.93;;
17259;SDS011;8746;49.230;9.220;2023-04-10T05:58:08;14.30;;;10.70;;
17259;SDS011;8746;49.230;9.220;2023-04-10T06:00:34;13.37;;;10.17;;
17259;SDS011;8746;49.230;9.220;2023-04-10T06:03:00;13.67;;;10.10;;
17259;SDS011;8746;49.230;9.220;2023-04-10T06:05:27;11.73;;;9.60;;
17259;SDS011;8746;49.230;9.220;2023-04-10T06:07:52;12.17;;;9.57;;
17259;SDS011;8746;49.230;9.220;2023-04-10T06:10:18;14.53;;;10.60;;
17259;SDS011;8746;49.230;9.220;2023-04-10T06:12:43;13.47;;;10.10;;
17259;SDS011;8746;49.230;9.220;2023-04-10T06:15:08;13.47;;;9.80;;
17259;SDS011;8746;49.230;9.220;2023-04-10T06:17:39;13.77;;;10.70;;
17259;SDS011;8746;49.230;9.220;2023-04-10T06:20:06;12.73;;;10.00;;
17259;SDS011;8746;49.230;9.220;2023-04-10T06:22:32;13.10;;;10.33;;
17259;SDS011;8746;49.230;9.220;2023-04-10T06:24:57;12.60;;;10.27;;
17259;SDS011;8746;49.230;9.220;2023-04-10T06:27:23;11.93;;;9.70;;
17259;SDS011;8746;49.230;9.220;2023-04-10T06:29:48;12.87;;;9.73;;
17259;SDS011;8746;49.230;9.220;2023-04-10T06:32:13;11.60;;;9.70;;
17259;SDS011;8746;49.230;9.220;2023-04-10T06:34:38;12.23;;;10.10;;
17259;SDS011;8746;49.230;9.220;2023-04-10T06:37:04;12.00;;;9.90;;
17259;SDS011;8746;49.230;9.220;2023-04-10T06:39:29;12.83;;;9.90;;
17259;SDS011;8746;49.230;9.220;2023-04-10T06:41:55;12.07;;;9.73;;
17259;SDS011;8746;49.230;9.220;2023-04-10T06:44:21;12.50;;;9.93;;
17259;SDS011;8746;49.230;9.220;2023-04-10T06:46:47;11.73;;;9.03;;
17259;SDS011;8746;49.230;9.220;2023-04-10T06:49:12;10.93;;;9.07;;
17259;SDS011;8746;49.230;9.220;2023-04-10T06:51:37;10.93;;;9.17;;
17259;SDS011;8746;49.230;9.220;2023-04-10T06:54:03;12.40;;;9.67;;
17259;SDS011;8746;49.230;9.220;2023-04-10T06:56:28;12.47;;;9.67;;
17259;SDS011;8746;49.230;9.220;2023-04-10T06:58:53;12.37;;;9.47;;
17259;SDS011;8746;49.230;9.220;2023-04-10T07:01:19;12.07;;;9.47;;
17259;SDS011;8746;49.230;9.220;2023-04-10T07:03:45;11.70;;;9.80;;
17259;SDS011;8746;49.230;9.220;2023-04-10T07:06:10;10.77;;;8.87;;
17259;SDS011;8746;49.230;9.220;2023-04-10T07:08:36;11.97;;;9.63;;
17259;SDS011;8746;49.230;9.220;2023-04-10T07:11:01;13.63;;;9.00;;
17259;SDS011;8746;49.230;9.220;2023-04-10T07:13:26;10.20;;;8.83;;
17259;SDS011;8746;49.230;9.220;2023-04-10T07:15:52;11.43;;;9.30;;
17259;SDS011;8746;49.230;9.220;2023-04-10T07:18:17;10.67;;;8.80;;
17259;SDS011;8746;49.230;9.220;2023-04-10T07:20:43;11.77;;;8.83;;
17259;SDS011;8746;49.230;9.220;2023-04-10T07:23:08;9.57;;;8.27;;
17259;SDS011;8746;49.230;9.220;2023-04-10T07:25:33;11.60;;;9.00;;
17259;SDS011;8746;49.230;9.220;2023-04-10T07:27:59;9.60;;;8.27;;
17259;SDS011;8746;49.230;9.220;2023-04-10T07:30:24;9.90;;;8.37;;
17259;SDS011;8746;49.230;9.220;2023-04-10T07:32:50;10.00;;;7.97;;
17259;SDS011;8746;49.230;9.220;2023-04-10T07:35:16;9.60;;;8.30;;
17259;SDS011;8746;49.230;9.220;2023-04-10T07:37:41;8.93;;;7.50;;
17259;SDS011;8746;49.230;9.220;2023-04-10T07:40:08;9.17;;;7.70;;
17259;SDS011;8746;49.230;9.220;2023-04-10T07:42:34;9.50;;;8.20;;
17259;SDS011;8746;49.230;9.220;2023-04-10T07:45:00;7.80;;;7.00;;
17259;SDS011;8746;49.230;9.220;2023-04-10T07:47:25;9.07;;;7.97;;
17259;SDS011;8746;49.230;9.220;2023-04-10T07:49:51;9.10;;;7.87;;
17259;SDS011;8746;49.230;9.220;2023-04-10T07:52:16;8.90;;;7.60;;
17259;SDS011;8746;49.230;9.220;2023-04-10T07:54:41;8.70;;;7.67;;
17259;SDS011;8746;49.230;9.220;2023-04-10T07:57:07;8.97;;;7.53;;
17259;SDS011;8746;49.230;9.220;2023-04-10T07:59:32;8.43;;;7.53;;
17259;SDS011;8746;49.230;9.220;2023-04-10T08:01:57;8.13;;;7.33;;
17259;SDS011;8746;49.230;9.220;2023-04-10T08:04:23;8.83;;;7.03;;
17259;SDS011;8746;49.230;9.220;2023-04-10T08:06:48;8.13;;;7.33;;
17259;SDS011;8746;49.230;9.220;2023-04-10T08:09:14;7.63;;;6.83;;
17259;SDS011;8746;49.230;9.220;2023-04-10T08:11:39;7.73;;;6.53;;
17259;SDS011;8746;49.230;9.220;2023-04-10T08:14:04;8.40;;;6.83;;
17259;SDS011;8746;49.230;9.220;2023-04-10T08:16:34;7.53;;;6.73;;
17259;SDS011;8746;49.230;9.220;2023-04-10T08:19:01;7.30;;;6.60;;
17259;SDS011;8746;49.230;9.220;2023-04-10T08:21:27;7.53;;;6.73;;
17259;SDS011;8746;49.230;9.220;2023-04-10T08:23:54;7.10;;;6.40;;
17259;SDS011;8746;49.230;9.220;2023-04-10T08:26:24;6.53;;;5.83;;
17259;SDS011;8746;49.230;9.220;2023-04-10T08:28:51;6.83;;;6.13;;
17259;SDS011;8746;49.230;9.220;2023-04-10T08:31:18;6.20;;;5.60;;
17259;SDS011;8746;49.230;9.220;2023-04-10T08:33:44;6.53;;;5.93;;
17259;SDS011;8746;49.230;9.220;2023-04-10T08:36:10;5.87;;;5.27;;
17259;SDS011;8746;49.230;9.220;2023-04-10T08:38:37;5.90;;;5.40;;
17259;SDS011;8746;49.230;9.220;2023-04-10T08:41:06;5.70;;;5.20;;
17259;SDS011;8746;49.230;9.220;2023-04-10T08:43:34;5.90;;;5.30;;
17259;SDS011;8746;49.230;9.220;2023-04-10T08:46:00;5.53;;;5.03;;
17259;SDS011;8746;49.230;9.220;2023-04-10T08:48:28;6.03;;;5.43;;
17259;SDS011;8746;49.230;9.220;2023-04-10T08:50:59;4.83;;;4.33;;
17259;SDS011;8746;49.230;9.220;2023-04-10T08:53:25;5.13;;;4.63;;
17259;SDS011;8746;49.230;9.220;2023-04-10T08:55:55;4.80;;;4.10;;
17259;SDS011;8746;49.230;9.220;2023-04-10T08:58:21;5.43;;;4.93;;
17259;SDS011;8746;49.230;9.220;2023-04-10T09:00:48;5.10;;;4.60;;
17259;SDS011;8746;49.230;9.220;2023-04-10T09:03:14;5.00;;;4.60;;
17259;SDS011;8746;49.230;9.220;2023-04-10T09:05:40;4.90;;;4.50;;
17259;SDS011;8746;49.230;9.220;2023-04-10T09:08:08;4.83;;;4.40;;
17259;SDS011;8746;49.230;9.220;2023-04-10T09:10:35;4.67;;;4.27;;
17259;SDS011;8746;49.230;9.220;2023-04-10T09:13:00;4.63;;;4.17;;
17259;SDS011;8746;49.230;9.220;2023-04-10T09:15:26;4.60;;;4.20;;
17259;SDS011;8746;49.230;9.220;2023-04-10T09:20:20;3.53;;;3.23;;
17259;SDS011;8746;49.230;9.220;2023-04-10T09:22:47;3.43;;;3.20;;
17259;SDS011;8746;49.230;9.220;2023-04-10T09:25:27;3.67;;;3.37;;
17259;SDS011;8746;49.230;9.220;2023-04-10T09:27:58;3.20;;;2.90;;
17259;SDS011;8746;49.230;9.220;2023-04-10T09:30:33;3.40;;;3.10;;
17259;SDS011;8746;49.230;9.220;2023-04-10T09:33:22;3.47;;;3.17;;
17259;SDS011;8746;49.230;9.220;2023-04-10T09:35:51;3.67;;;3.37;;
17259;SDS011;8746;49.230;9.220;2023-04-10T09:38:17;3.77;;;3.47;;
17259;SDS011;8746;49.230;9.220;2023-04-10T09:40:44;3.40;;;3.10;;
17259;SDS011;8746;49.230;9.220;2023-04-10T09:45:50;3.57;;;2.80;;
17259;SDS011;8746;49.230;9.220;2023-04-10T09:48:17;3.43;;;3.13;;
17259;SDS011;8746;49.230;9.220;2023-04-10T09:50:43;3.30;;;3.10;;
17259;SDS011;8746;49.230;9.220;2023-04-10T09:53:09;4.27;;;3.10;;
17259;SDS011;8746;49.230;9.220;2023-04-10T09:55:36;3.33;;;3.03;;
17259;SDS011;8746;49.230;9.220;2023-04-10T09:58:02;3.53;;;3.23;;
17259;SDS011;8746;49.230;9.220;2023-04-10T10:00:28;3.37;;;3.13;;
17259;SDS011;8746;49.230;9.220;2023-04-10T10:02:53;3.50;;;3.20;;
17259;SDS011;8746;49.230;9.220;2023-04-10T10:05:21;3.10;;;2.90;;
17259;SDS011;8746;49.230;9.220;2023-04-10T10:07:51;3.00;;;2.70;;
17259;SDS011;8746;49.230;9.220;2023-04-10T10:10:17;2.70;;;2.50;;
17259;SDS011;8746;49.230;9.220;2023-04-10T10:12:43;3.17;;;2.92;;
17259;SDS011;8746;49.230;9.220;2023-04-10T10:15:19;2.80;;;2.60;;
17259;SDS011;8746;49.230;9.220;2023-04-10T10:18:46;2.67;;;2.47;;
17259;SDS011;8746;49.230;9.220;2023-04-10T10:20:57;2.80;;;2.60;;
17259;SDS011;8746;49.230;9.220;2023-04-10T10:23:23;2.63;;;2.42;;
17259;SDS011;8746;49.230;9.220;2023-04-10T10:25:50;2.70;;;2.50;;
17259;SDS011;8746;49.230;9.220;2023-04-10T10:28:18;2.53;;;2.38;;
17259;SDS011;8746;49.230;9.220;2023-04-10T10:30:44;2.65;;;2.42;;
17259;SDS011;8746;49.230;9.220;2023-04-10T10:33:11;2.50;;;2.30;;
17259;SDS011;8746;49.230;9.220;2023-04-10T10:35:38;2.70;;;2.50;;
17259;SDS011;8746;49.230;9.220;2023-04-10T10:38:04;2.60;;;2.40;;
17259;SDS011;8746;49.230;9.220;2023-04-10T10:48:31;2.42;;;2.28;;
17259;SDS011;8746;49.230;9.220;2023-04-10T10:50:57;2.45;;;2.08;;
17259;SDS011;8746;49.230;9.220;2023-04-10T10:53:32;2.38;;;2.28;;
17259;SDS011;8746;49.230;9.220;2023-04-10T10:55:58;2.50;;;2.30;;
17259;SDS011;8746;49.230;9.220;2023-04-10T10:58:50;1.85;;;1.75;;
17259;SDS011;8746;49.230;9.220;2023-04-10T11:01:16;2.00;;;1.90;;
17259;SDS011;8746;49.230;9.220;2023-04-10T11:03:43;2.00;;;1.90;;
17259;SDS011;8746;49.230;9.220;2023-04-10T11:06:19;2.13;;;2.03;;
17259;SDS011;8746;49.230;9.220;2023-04-10T11:08:48;2.05;;;1.95;;
17259;SDS011;8746;49.230;9.220;2023-04-10T11:11:20;2.20;;;2.00;;
17259;SDS011;8746;49.230;9.220;2023-04-10T11:16:15;2.22;;;2.03;;
17259;SDS011;8746;49.230;9.220;2023-04-10T11:21:15;1.90;;;1.80;;
17259;SDS011;8746;49.230;9.220;2023-04-10T11:26:19;1.92;;;1.83;;
17259;SDS011;8746;49.230;9.220;2023-04-10T11:31:46;2.10;;;1.92;;
17259;SDS011;8746;49.230;9.220;2023-04-10T11:34:19;2.10;;;2.00;;
17259;SDS011;8746;49.230;9.220;2023-04-10T11:36:44;2.05;;;1.95;;
17259;SDS011;8746;49.230;9.220;2023-04-10T11:39:10;1.98;;;1.88;;
17259;SDS011;8746;49.230;9.220;2023-04-10T11:41:44;1.98;;;1.88;;
17259;SDS011;8746;49.230;9.220;2023-04-10T11:44:12;2.08;;;1.98;;
17259;SDS011;8746;49.230;9.220;2023-04-10T11:47:00;2.67;;;2.47;;
17259;SDS011;8746;49.230;9.220;2023-04-10T11:49:29;4.53;;;1.75;;
17259;SDS011;8746;49.230;9.220;2023-04-10T11:51:57;2.60;;;2.40;;
17259;SDS011;8746;49.230;9.220;2023-04-10T11:54:23;1.80;;;1.70;;
17259;SDS011;8746;49.230;9.220;2023-04-10T11:56:57;1.67;;;1.58;;
17259;SDS011;8746;49.230;9.220;2023-04-10T11:59:23;4.10;;;1.90;;
17259;SDS011;8746;49.230;9.220;2023-04-10T12:01:49;1.98;;;1.70;;
17259;SDS011;8746;49.230;9.220;2023-04-10T12:04:18;1.83;;;1.73;;
17259;SDS011;8746;49.230;9.220;2023-04-10T12:09:14;1.77;;;1.67;;
17259;SDS011;8746;49.230;9.220;2023-04-10T12:17:05;2.22;;;2.08;;
17259;SDS011;8746;49.230;9.220;2023-04-10T12:19:32;1.90;;;1.77;;
17259;SDS011;8746;49.230;9.220;2023-04-10T12:21:59;2.08;;;1.90;;
17259;SDS011;8746;49.230;9.220;2023-04-10T12:27:25;2.00;;;1.80;;
17259;SDS011;8746;49.230;9.220;2023-04-10T12:29:53;1.98;;;1.80;;
17259;SDS011;8746;49.230;9.220;2023-04-10T12:32:20;2.05;;;1.77;;
17259;SDS011;8746;49.230;9.220;2023-04-10T12:34:53;2.58;;;2.38;;
17259;SDS011;8746;49.230;9.220;2023-04-10T12:37:23;1.48;;;1.38;;
17259;SDS011;8746;49.230;9.220;2023-04-10T12:39:49;1.50;;;1.40;;
17259;SDS011;8746;49.230;9.220;2023-04-10T12:47:16;1.70;;;1.60;;
17259;SDS011;8746;49.230;9.220;2023-04-10T12:49:41;1.70;;;1.60;;
17259;SDS011;8746;49.230;9.220;2023-04-10T12:52:07;1.70;;;1.60;;
17259;SDS011;8746;49.230;9.220;2023-04-10T12:54:33;1.52;;;1.42;;
17259;SDS011;8746;49.230;9.220;2023-04-10T12:56:59;1.35;;;1.25;;
17259;SDS011;8746;49.230;9.220;2023-04-10T12:59:28;1.20;;;1.10;;
17259;SDS011;8746;49.230;9.220;2023-04-10T13:01:54;1.10;;;1.10;;
17259;SDS011;8746;49.230;9.220;2023-04-10T13:04:20;1.42;;;1.33;;
17259;SDS011;8746;49.230;9.220;2023-04-10T13:06:46;1.42;;;1.33;;
17259;SDS011;8746;49.230;9.220;2023-04-10T13:09:13;1.30;;;1.30;;
17259;SDS011;8746;49.230;9.220;2023-04-10T13:11:39;1.50;;;1.40;;
17259;SDS011;8746;49.230;9.220;2023-04-10T13:14:06;1.40;;;1.30;;
17259;SDS011;8746;49.230;9.220;2023-04-10T13:16:33;1.50;;;1.40;;
17259;SDS011;8746;49.230;9.220;2023-04-10T13:18:59;1.45;;;1.35;;
17259;SDS011;8746;49.230;9.220;2023-04-10T13:21:24;1.23;;;1.13;;
17259;SDS011;8746;49.230;9.220;2023-04-10T13:23:55;1.42;;;1.33;;
17259;SDS011;8746;49.230;9.220;2023-04-10T13:26:21;1.40;;;1.30;;
17259;SDS011;8746;49.230;9.220;2023-04-10T13:28:47;1.20;;;1.20;;
17259;SDS011;8746;49.230;9.220;2023-04-10T13:31:12;1.65;;;1.55;;
17259;SDS011;8746;49.230;9.220;2023-04-10T13:33:39;1.58;;;1.48;;
17259;SDS011;8746;49.230;9.220;2023-04-10T13:36:05;1.30;;;1.20;;
17259;SDS011;8746;49.230;9.220;2023-04-10T13:38:31;1.50;;;1.40;;
17259;SDS011;8746;49.230;9.220;2023-04-10T13:40:56;1.60;;;1.50;;
17259;SDS011;8746;49.230;9.220;2023-04-10T13:43:22;1.63;;;1.52;;
17259;SDS011;8746;49.230;9.220;2023-04-10T13:45:47;1.70;;;1.60;;
17259;SDS011;8746;49.230;9.220;2023-04-10T13:48:13;1.70;;;1.60;;
17259;SDS011;8746;49.230;9.220;2023-04-10T13:50:41;1.65;;;1.55;;
17259;SDS011;8746;49.230;9.220;2023-04-10T13:53:06;1.85;;;1.75;;
17259;SDS011;8746;49.230;9.220;2023-04-10T13:55:34;1.90;;;1.80;;
17259;SDS011;8746;49.230;9.220;2023-04-10T13:58:01;1.80;;;1.70;;
17259;SDS011;8746;49.230;9.220;2023-04-10T14:00:26;1.60;;;1.50;;
17259;SDS011;8746;49.230;9.220;2023-04-10T14:02:52;1.70;;;1.60;;
17259;SDS011;8746;49.230;9.220;2023-04-10T14:05:17;2.22;;;1.90;;
17259;SDS011;8746;49.230;9.220;2023-04-10T14:07:42;1.83;;;1.73;;
17259;SDS011;8746;49.230;9.220;2023-04-10T14:10:08;2.03;;;1.90;;
17259;SDS011;8746;49.230;9.220;2023-04-10T14:12:34;1.70;;;1.60;;
17259;SDS011;8746;49.230;9.220;2023-04-10T14:14:59;1.80;;;1.70;;
17259;SDS011;8746;49.230;9.220;2023-04-10T14:17:25;1.67;;;1.58;;
17259;SDS011;8746;49.230;9.220;2023-04-10T14:19:50;1.60;;;1.50;;
17259;SDS011;8746;49.230;9.220;2023-04-10T14:22:17;3.17;;;2.00;;
17259;SDS011;8746;49.230;9.220;2023-04-10T14:24:43;2.13;;;1.92;;
17259;SDS011;8746;49.230;9.220;2023-04-10T14:27:08;1.70;;;1.60;;
17259;SDS011;8746;49.230;9.220;2023-04-10T14:29:33;3.78;;;1.70;;
17259;SDS011;8746;49.230;9.220;2023-04-10T14:31:59;1.80;;;1.70;;
17259;SDS011;8746;49.230;9.220;2023-04-10T14:34:24;1.67;;;1.58;;
17259;SDS011;8746;49.230;9.220;2023-04-10T14:36:49;1.70;;;1.60;;
17259;SDS011;8746;49.230;9.220;2023-04-10T14:39:19;1.67;;;1.58;;
17259;SDS011;8746;49.230;9.220;2023-04-10T14:41:46;1.63;;;1.52;;
17259;SDS011;8746;49.230;9.220;2023-04-10T14:44:11;1.27;;;1.20;;
17259;SDS011;8746;49.230;9.220;2023-04-10T14:46:37;1.65;;;1.55;;
17259;SDS011;8746;49.230;9.220;2023-04-10T14:49:02;1.38;;;1.27;;
17259;SDS011;8746;49.230;9.220;2023-04-10T14:51:27;1.30;;;1.20;;
17259;SDS011;8746;49.230;9.220;2023-04-10T14:53:53;1.55;;;1.45;;
17259;SDS011;8746;49.230;9.220;2023-04-10T14:56:18;1.50;;;1.40;;
17259;SDS011;8746;49.230;9.220;2023-04-10T14:58:43;1.45;;;1.38;;
17259;SDS011;8746;49.230;9.220;2023-04-10T15:01:11;1.73;;;1.50;;
17259;SDS011;8746;49.230;9.220;2023-04-10T15:03:37;1.50;;;1.40;;
17259;SDS011;8746;49.230;9.220;2023-04-10T15:06:03;1.40;;;1.30;;
17259;SDS011;8746;49.230;9.220;2023-04-10T15:08:29;1.10;;;1.10;;
17259;SDS011;8746;49.230;9.220;2023-04-10T15:10:54;1.10;;;1.10;;
17259;SDS011;8746;49.230;9.220;2023-04-10T15:13:20;1.80;;;1.70;;
17259;SDS011;8746;49.230;9.220;2023-04-10T15:15:45;1.20;;;1.20;;
17259;SDS011;8746;49.230;9.220;2023-04-10T15:18:13;1.80;;;1.38;;
17259;SDS011;8746;49.230;9.220;2023-04-10T15:20:39;1.40;;;1.30;;
17259;SDS011;8746;49.230;9.220;2023-04-10T15:23:04;1.30;;;1.20;;
17259;SDS011;8746;49.230;9.220;2023-04-10T15:25:33;1.30;;;1.20;;
17259;SDS011;8746;49.230;9.220;2023-04-10T15:27:58;2.22;;;1.58;;
17259;SDS011;8746;49.230;9.220;2023-04-10T15:30:24;1.55;;;1.45;;
17259;SDS011;8746;49.230;9.220;2023-04-10T15:32:49;1.20;;;1.20;;
17259;SDS011;8746;49.230;9.220;2023-04-10T15:35:15;1.58;;;1.48;;
17259;SDS011;8746;49.230;9.220;2023-04-10T15:37:40;1.52;;;1.40;;
17259;SDS011;8746;49.230;9.220;2023-04-10T15:40:06;1.55;;;1.45;;